Time;durP1;ratioP1;P1;durP2;ratioP2;P2;SDS_P1;SDS_P2;PMS_P1;PMS_P2;Temp;Humidity;BMP_temperature;BMP_pressure;BME280_temperature;BME280_humidity;BME280_pressure;Samples;Min_cycle;Max_cycle;Signal;HPM_P1;HPM_P2
2023/05/20 00:01:58;;;;;;;0.15;0.15;;;12.70;99.90;;;;;;5011282;28;20081;-64
2023/05/20 00:04:24;;;;;;;0.73;0.73;;;12.70;99.90;;;;;;5001027;28;20038;-64
2023/05/20 00:06:50;;;;;;;3.03;1.55;;;12.70;99.90;;;;;;5009659;28;20102;-65
2023/05/20 00:09:18;;;;;;;0.10;0.10;;;12.70;99.90;;;;;;5008077;28;20050;-65
2023/05/20 00:11:45;;;;;;;0.10;0.10;;;12.70;99.90;;;;;;5007471;28;20038;-65
2023/05/20 00:14:10;;;;;;;0.10;0.10;;;12.70;99.90;;;;;;5004270;28;20061;-65
2023/05/20 00:16:36;;;;;;;0.08;0.08;;;12.60;99.90;;;;;;5008926;28;20038;-65
2023/05/20 00:19:02;;;;;;;0.10;0.10;;;12.70;99.90;;;;;;5013184;28;20046;-65
2023/05/20 00:21:28;;;;;;;0.25;0.25;;;12.60;99.90;;;;;;5008842;28;20033;-64
2023/05/20 00:23:55;;;;;;;0.00;0.00;;;12.60;99.90;;;;;;5007389;28;20080;-65
2023/05/20 00:26:21;;;;;;;0.32;0.32;;;12.60;99.90;;;;;;5011857;28;20037;-65
2023/05/20 00:28:47;;;;;;;1.35;1.27;;;12.60;99.90;;;;;;5017883;28;20085;-64
2023/05/20 00:31:12;;;;;;;0.50;0.50;;;12.60;99.90;;;;;;4999629;28;20136;-65
2023/05/20 00:33:38;;;;;;;1.27;0.65;;;12.50;99.90;;;;;;5015284;28;20050;-65
2023/05/20 00:36:04;;;;;;;0.00;0.00;;;12.50;99.90;;;;;;5010570;28;20038;-65
2023/05/20 00:38:30;;;;;;;0.65;0.65;;;12.50;99.90;;;;;;5006761;28;20672;-65
2023/05/20 00:40:55;;;;;;;0.17;0.17;;;12.50;99.90;;;;;;5009090;28;20132;-65
2023/05/20 00:43:24;;;;;;;0.10;0.10;;;12.50;99.90;;;;;;5009495;28;20052;-65
2023/05/20 00:45:50;;;;;;;0.03;0.03;;;12.60;99.90;;;;;;5012644;28;20049;-65
2023/05/20 00:48:16;;;;;;;0.10;0.10;;;12.60;99.90;;;;;;5001787;28;20058;-65
2023/05/20 00:50:42;;;;;;;0.40;0.35;;;12.50;99.90;;;;;;5009377;28;20045;-65
2023/05/20 00:53:08;;;;;;;0.08;0.08;;;12.50;99.90;;;;;;5017793;28;20045;-65
2023/05/20 00:55:34;;;;;;;1.00;1.00;;;12.50;99.90;;;;;;5018625;28;20354;-65
2023/05/20 00:58:00;;;;;;;0.55;0.43;;;12.40;99.90;;;;;;5000121;28;20101;-65
2023/05/20 01:00:25;;;;;;;0.80;0.47;;;12.40;99.90;;;;;;5009368;28;21330;-65
2023/05/20 01:02:52;;;;;;;0.03;0.03;;;12.50;99.90;;;;;;5003154;28;20035;-65
2023/05/20 01:05:17;;;;;;;0.10;0.10;;;12.40;99.90;;;;;;5007075;28;20046;-65
2023/05/20 01:07:43;;;;;;;0.70;0.65;;;12.40;99.90;;;;;;5009608;28;20034;-65
2023/05/20 01:10:09;;;;;;;0.73;0.73;;;12.40;99.90;;;;;;5001583;28;20117;-65
2023/05/20 01:12:45;;;;;;;0.50;0.38;;;12.40;99.90;;;;;;5003888;28;20072;-65
2023/05/20 01:15:13;;;;;;;4.57;2.55;;;12.30;99.90;;;;;;5002085;28;20065;-65
2023/05/20 01:17:43;;;;;;;0.28;0.28;;;12.30;99.90;;;;;;5010099;28;20456;-65
2023/05/20 01:20:10;;;;;;;0.10;0.10;;;12.30;99.90;;;;;;5017086;28;20118;-65
2023/05/20 01:22:52;;;;;;;0.05;0.05;;;12.30;99.90;;;;;;5005703;28;20108;-65
2023/05/20 01:25:17;;;;;;;0.77;0.75;;;12.30;99.90;;;;;;5011862;28;20045;-65
2023/05/20 01:27:43;;;;;;;0.28;0.22;;;12.30;99.90;;;;;;5000030;28;20386;-65
2023/05/20 01:30:10;;;;;;;0.10;0.10;;;12.30;99.90;;;;;;5007167;28;20133;-65
2023/05/20 01:32:39;;;;;;;2.55;1.23;;;12.30;99.90;;;;;;4999164;28;20046;-65
2023/05/20 01:35:06;;;;;;;0.20;0.20;;;12.30;99.90;;;;;;5018666;28;20251;-65
2023/05/20 01:37:37;;;;;;;0.03;0.03;;;12.30;99.90;;;;;;5006769;28;20046;-65
2023/05/20 01:40:05;;;;;;;4.82;1.02;;;12.20;99.90;;;;;;5004430;28;20081;-65
2023/05/20 01:42:32;;;;;;;0.30;0.30;;;12.30;99.90;;;;;;4998858;28;20053;-65
2023/05/20 01:44:58;;;;;;;0.20;0.20;;;12.30;99.90;;;;;;5007603;28;20030;-65
2023/05/20 01:47:23;;;;;;;6.40;2.45;;;12.30;99.90;;;;;;4998850;28;20049;-65
2023/05/20 01:49:51;;;;;;;0.10;0.10;;;12.20;99.90;;;;;;5006367;28;20057;-65
2023/05/20 01:52:17;;;;;;;0.05;0.05;;;12.20;99.90;;;;;;5009199;28;20050;-65
2023/05/20 01:54:49;;;;;;;0.10;0.10;;;12.20;99.90;;;;;;5012417;28;20045;-65
2023/05/20 01:57:18;;;;;;;1.27;0.90;;;12.20;99.90;;;;;;5001334;28;20177;-65
2023/05/20 01:59:44;;;;;;;0.10;0.10;;;12.10;99.90;;;;;;5002725;28;20084;-65
2023/05/20 02:02:10;;;;;;;1.08;1.00;;;12.10;99.90;;;;;;5007921;28;20041;-65
2023/05/20 02:04:35;;;;;;;0.10;0.10;;;12.10;99.90;;;;;;5003248;28;20096;-65
2023/05/20 02:07:01;;;;;;;0.10;0.10;;;12.10;99.90;;;;;;5003162;28;20073;-65
2023/05/20 02:09:27;;;;;;;0.30;0.30;;;12.00;99.90;;;;;;5015135;28;20034;-65
2023/05/20 02:11:52;;;;;;;0.22;0.22;;;12.00;99.90;;;;;;5004877;28;20070;-65
2023/05/20 02:14:18;;;;;;;0.38;0.38;;;12.00;99.90;;;;;;5003769;28;20080;-65
2023/05/20 02:16:45;;;;;;;0.05;0.05;;;12.00;99.90;;;;;;5008868;28;20034;-65
2023/05/20 02:19:11;;;;;;;0.25;0.25;;;12.00;99.90;;;;;;5016525;28;20137;-65
2023/05/20 02:21:39;;;;;;;0.00;0.00;;;12.00;99.90;;;;;;5001244;28;20042;-65
2023/05/20 02:24:05;;;;;;;0.20;0.20;;;12.00;99.90;;;;;;5011574;28;20104;-65
2023/05/20 02:26:31;;;;;;;0.40;0.40;;;12.00;99.90;;;;;;5011620;28;20398;-65
2023/05/20 02:28:56;;;;;;;0.10;0.10;;;12.00;99.90;;;;;;5007302;28;20077;-65
2023/05/20 02:31:22;;;;;;;1.45;0.57;;;12.00;99.90;;;;;;5003998;28;20046;-65
2023/05/20 02:33:47;;;;;;;0.20;0.20;;;12.00;99.90;;;;;;5008291;28;20046;-65
2023/05/20 02:36:13;;;;;;;0.05;0.05;;;11.90;99.90;;;;;;5009016;28;20046;-65
2023/05/20 02:38:38;;;;;;;0.35;0.35;;;11.90;99.90;;;;;;5017897;28;20053;-65
2023/05/20 02:41:04;;;;;;;0.10;0.10;;;11.90;99.90;;;;;;5016852;28;20041;-65
2023/05/20 02:43:31;;;;;;;0.70;0.70;;;11.90;99.90;;;;;;5003015;28;20050;-65
2023/05/20 02:45:56;;;;;;;0.30;0.20;;;11.90;99.90;;;;;;5002240;28;20045;-65
2023/05/20 02:48:22;;;;;;;0.10;0.10;;;11.90;99.90;;;;;;5009038;28;20639;-65
2023/05/20 02:50:47;;;;;;;0.10;0.10;;;11.80;99.90;;;;;;5012891;28;20042;-64
2023/05/20 02:53:13;;;;;;;1.35;0.55;;;11.80;99.90;;;;;;5015858;28;20046;-65
2023/05/20 02:55:39;;;;;;;1.35;0.75;;;11.80;99.90;;;;;;5007930;28;20465;-65
2023/05/20 02:58:05;;;;;;;2.60;1.40;;;11.80;99.90;;;;;;5015428;28;20041;-65
2023/05/20 03:00:30;;;;;;;1.70;1.60;;;11.80;99.90;;;;;;5015486;28;20050;-64
2023/05/20 03:02:57;;;;;;;0.00;0.00;;;11.80;99.90;;;;;;5007864;28;20200;-65
2023/05/20 03:05:23;;;;;;;0.40;0.40;;;11.80;99.90;;;;;;5009609;28;20125;-65
2023/05/20 03:07:49;;;;;;;0.10;0.10;;;11.70;99.90;;;;;;5019629;28;20108;-65
2023/05/20 03:10:15;;;;;;;0.20;0.20;;;11.80;99.90;;;;;;5012421;28;20501;-65
2023/05/20 03:12:40;;;;;;;0.10;0.10;;;11.70;99.90;;;;;;4998198;28;20030;-65
2023/05/20 03:15:06;;;;;;;0.10;0.10;;;11.80;99.90;;;;;;5010293;28;20121;-64
2023/05/20 03:17:32;;;;;;;0.20;0.20;;;11.70;99.90;;;;;;5002107;28;20054;-65
2023/05/20 03:19:58;;;;;;;0.15;0.15;;;11.70;99.90;;;;;;5009439;28;20053;-65
2023/05/20 03:22:23;;;;;;;0.00;0.00;;;11.70;99.90;;;;;;5045205;28;20057;-65
2023/05/20 03:24:51;;;;;;;0.00;0.00;;;11.70;99.90;;;;;;5008546;28;20077;-65
2023/05/20 03:27:17;;;;;;;0.40;0.40;;;11.70;99.90;;;;;;5004899;28;20058;-65
2023/05/20 03:29:43;;;;;;;0.10;0.10;;;11.70;99.90;;;;;;5005148;28;20072;-65
2023/05/20 03:32:08;;;;;;;0.40;0.40;;;11.70;99.90;;;;;;5001794;28;20053;-64
2023/05/20 03:34:34;;;;;;;0.40;0.28;;;11.70;99.90;;;;;;5001529;28;20466;-64
2023/05/20 03:37:00;;;;;;;0.10;0.10;;;11.60;99.90;;;;;;5010524;28;20037;-65
2023/05/20 03:39:25;;;;;;;1.75;0.93;;;11.70;99.90;;;;;;5012712;28;20077;-65
2023/05/20 03:41:51;;;;;;;0.15;0.15;;;11.60;99.90;;;;;;5006424;28;20084;-65
2023/05/20 03:44:16;;;;;;;1.08;1.02;;;11.60;99.90;;;;;;5008756;28;20041;-65
2023/05/20 03:46:42;;;;;;;0.20;0.20;;;11.70;99.90;;;;;;5016155;28;20053;-65
2023/05/20 03:49:07;;;;;;;0.10;0.10;;;11.60;99.90;;;;;;5004653;28;20477;-65
2023/05/20 03:51:33;;;;;;;0.10;0.10;;;11.70;99.90;;;;;;5018585;28;20054;-64
2023/05/20 03:53:58;;;;;;;0.10;0.10;;;11.60;99.90;;;;;;5010693;28;20046;-65
2023/05/20 03:56:25;;;;;;;0.10;0.10;;;11.60;99.90;;;;;;5017468;28;20080;-64
2023/05/20 03:58:51;;;;;;;0.73;0.73;;;11.60;99.90;;;;;;5005046;28;20060;-65
2023/05/20 04:01:17;;;;;;;0.30;0.30;;;11.70;99.90;;;;;;5023734;28;20472;-65
2023/05/20 04:03:42;;;;;;;0.05;0.05;;;11.60;99.90;;;;;;5042056;28;20053;-65
2023/05/20 04:06:08;;;;;;;0.10;0.10;;;11.70;99.90;;;;;;5003710;28;20092;-65
2023/05/20 04:08:35;;;;;;;0.32;0.32;;;11.70;99.90;;;;;;5026112;28;20053;-64
2023/05/20 04:11:01;;;;;;;0.10;0.10;;;11.70;99.90;;;;;;5008903;28;20051;-65
2023/05/20 04:13:27;;;;;;;0.10;0.10;;;11.70;99.90;;;;;;5001399;28;20037;-65
2023/05/20 04:15:53;;;;;;;2.53;0.57;;;11.70;99.90;;;;;;5014193;28;20087;-65
2023/05/20 04:18:18;;;;;;;0.10;0.10;;;11.70;99.90;;;;;;5005805;28;20037;-65
2023/05/20 04:20:45;;;;;;;1.80;0.85;;;11.70;99.90;;;;;;5007920;28;20038;-65
2023/05/20 04:23:11;;;;;;;0.10;0.10;;;11.70;99.90;;;;;;5019524;28;20071;-65
2023/05/20 04:25:37;;;;;;;0.10;0.10;;;11.70;99.90;;;;;;5011462;28;20485;-64
2023/05/20 04:28:03;;;;;;;0.28;0.28;;;11.80;99.90;;;;;;5000735;28;20064;-65
2023/05/20 04:30:32;;;;;;;0.10;0.10;;;11.80;99.90;;;;;;5008000;28;20421;-65
2023/05/20 04:32:58;;;;;;;0.10;0.10;;;11.80;99.90;;;;;;5015101;28;20509;-65
2023/05/20 04:35:24;;;;;;;0.38;0.38;;;11.90;99.90;;;;;;5006805;28;20042;-65
2023/05/20 04:37:52;;;;;;;0.20;0.20;;;11.90;99.90;;;;;;5010132;28;20038;-65
2023/05/20 04:40:19;;;;;;;0.13;0.13;;;11.90;99.90;;;;;;5015215;28;20054;-65
2023/05/20 04:42:45;;;;;;;0.30;0.30;;;11.90;99.90;;;;;;5007908;28;20042;-65
2023/05/20 04:45:11;;;;;;;0.00;0.00;;;12.00;99.90;;;;;;5008080;28;20508;-65
2023/05/20 04:47:37;;;;;;;0.43;0.40;;;12.00;99.90;;;;;;5004080;28;20042;-65
2023/05/20 04:50:09;;;;;;;0.10;0.10;;;12.00;99.90;;;;;;5010357;28;20121;-65
2023/05/20 04:52:36;;;;;;;0.00;0.00;;;12.10;99.90;;;;;;5000084;28;20141;-65
2023/05/20 04:55:02;;;;;;;0.20;0.13;;;12.10;99.90;;;;;;5010306;28;20058;-65
2023/05/20 04:57:28;;;;;;;0.00;0.00;;;12.20;99.90;;;;;;5014019;28;20034;-65
2023/05/20 04:59:57;;;;;;;0.22;0.22;;;12.10;99.90;;;;;;5011748;28;20504;-65
2023/05/20 05:02:23;;;;;;;0.00;0.00;;;12.20;99.90;;;;;;5007785;28;20045;-65
2023/05/20 05:04:49;;;;;;;0.17;0.17;;;12.20;99.90;;;;;;5002731;28;20048;-65
2023/05/20 05:07:15;;;;;;;0.20;0.17;;;12.20;99.90;;;;;;5008368;28;20034;-65
2023/05/20 05:09:40;;;;;;;0.10;0.10;;;12.30;99.90;;;;;;5005183;28;20642;-65
2023/05/20 05:12:06;;;;;;;0.10;0.10;;;12.40;99.90;;;;;;5006501;28;20056;-65
2023/05/20 05:14:32;;;;;;;0.10;0.10;;;12.30;99.90;;;;;;4998447;28;20069;-65
2023/05/20 05:16:57;;;;;;;0.05;0.05;;;12.40;99.90;;;;;;4999620;28;20084;-65
2023/05/20 05:19:23;;;;;;;0.75;0.75;;;12.40;99.90;;;;;;5006602;28;20050;-65
2023/05/20 05:21:48;;;;;;;0.05;0.05;;;12.50;99.90;;;;;;5008174;28;20033;-65
2023/05/20 05:24:14;;;;;;;0.20;0.20;;;12.40;99.90;;;;;;5003057;28;20044;-65
2023/05/20 05:26:39;;;;;;;0.00;0.00;;;12.40;99.90;;;;;;5012910;28;20045;-65
2023/05/20 05:29:05;;;;;;;1.10;0.73;;;12.40;99.90;;;;;;4999866;28;20064;-65
2023/05/20 05:31:31;;;;;;;0.10;0.10;;;12.40;99.90;;;;;;5007278;28;20093;-65
2023/05/20 05:33:56;;;;;;;0.52;0.52;;;12.40;99.90;;;;;;5005497;28;20041;-65
2023/05/20 05:36:24;;;;;;;0.10;0.10;;;12.40;99.90;;;;;;5003137;28;20046;-65
2023/05/20 05:38:49;;;;;;;0.30;0.30;;;12.40;99.90;;;;;;5008273;28;20474;-65
2023/05/20 05:41:15;;;;;;;0.10;0.10;;;12.50;99.90;;;;;;5006796;28;20051;-65
2023/05/20 05:43:40;;;;;;;0.00;0.00;;;12.50;99.90;;;;;;5006302;28;20073;-65
2023/05/20 05:46:06;;;;;;;0.15;0.15;;;12.70;99.90;;;;;;5011351;28;20494;-65
2023/05/20 05:48:32;;;;;;;0.00;0.00;;;12.80;99.90;;;;;;5006619;28;20084;-65
2023/05/20 05:50:58;;;;;;;2.80;2.55;;;12.90;99.90;;;;;;5015669;28;20163;-65
2023/05/20 05:53:23;;;;;;;0.77;0.77;;;13.00;99.90;;;;;;5027520;28;20086;-65
2023/05/20 05:55:49;;;;;;;4.22;1.60;;;13.10;99.90;;;;;;5042479;28;20057;-65
2023/05/20 05:58:14;;;;;;;0.05;0.05;;;13.10;99.90;;;;;;5007461;28;20034;-65
2023/05/20 06:00:40;;;;;;;0.50;0.50;;;13.20;99.90;;;;;;5033850;28;20046;-65
2023/05/20 06:03:06;;;;;;;0.30;0.30;;;13.20;99.90;;;;;;5003973;28;20470;-65
2023/05/20 06:05:31;;;;;;;0.00;0.00;;;13.20;99.90;;;;;;5015198;28;20034;-65
2023/05/20 06:07:57;;;;;;;0.10;0.10;;;13.10;99.90;;;;;;5003363;28;20624;-65
2023/05/20 06:10:22;;;;;;;0.00;0.00;;;13.10;99.90;;;;;;5006743;28;20096;-65
2023/05/20 06:12:48;;;;;;;0.00;0.00;;;13.10;99.90;;;;;;5015176;28;20449;-65
2023/05/20 06:15:14;;;;;;;0.35;0.35;;;13.10;99.90;;;;;;5009048;28;20089;-65
2023/05/20 06:17:39;;;;;;;0.00;0.00;;;13.10;99.90;;;;;;5011951;28;20394;-65
2023/05/20 06:20:06;;;;;;;0.00;0.00;;;13.10;99.90;;;;;;5009977;28;20121;-65
2023/05/20 06:22:32;;;;;;;0.00;0.00;;;13.10;99.90;;;;;;5010190;28;20121;-65
2023/05/20 06:24:59;;;;;;;0.00;0.00;;;13.30;99.90;;;;;;5013156;28;20099;-65
2023/05/20 06:27:26;;;;;;;0.00;0.00;;;13.40;99.90;;;;;;5008173;28;20105;-65
2023/05/20 06:29:51;;;;;;;1.48;1.38;;;13.50;99.90;;;;;;5002656;28;20505;-64
2023/05/20 06:32:17;;;;;;;0.10;0.10;;;13.50;99.90;;;;;;5016553;28;20041;-64
2023/05/20 06:34:42;;;;;;;0.10;0.10;;;13.60;99.90;;;;;;5012047;28;20041;-64
2023/05/20 06:37:08;;;;;;;0.00;0.00;;;13.60;99.90;;;;;;5000898;28;20080;-64
2023/05/20 06:39:33;;;;;;;0.00;0.00;;;13.70;99.90;;;;;;5010361;28;20076;-65
2023/05/20 06:41:59;;;;;;;0.00;0.00;;;13.70;99.90;;;;;;5001302;28;20053;-64
2023/05/20 06:44:25;;;;;;;0.00;0.00;;;13.80;99.90;;;;;;5013811;28;20396;-64
2023/05/20 06:46:50;;;;;;;0.00;0.00;;;13.90;99.90;;;;;;5024461;28;20053;-64
2023/05/20 06:49:16;;;;;;;0.00;0.00;;;14.00;99.90;;;;;;5016277;28;20057;-64
2023/05/20 06:51:43;;;;;;;0.00;0.00;;;14.10;99.90;;;;;;5001690;28;20037;-64
2023/05/20 06:54:08;;;;;;;0.00;0.00;;;14.20;99.90;;;;;;5011258;28;20054;-65
2023/05/20 06:56:34;;;;;;;0.20;0.20;;;14.30;99.90;;;;;;5010176;28;20073;-65
2023/05/20 06:58:59;;;;;;;0.10;0.10;;;14.30;99.90;;;;;;5014121;28;20045;-65
2023/05/20 07:01:25;;;;;;;0.08;0.08;;;14.40;99.90;;;;;;5038263;28;20054;-64
2023/05/20 07:03:50;;;;;;;0.00;0.00;;;14.50;99.90;;;;;;5009030;28;20046;-64
2023/05/20 07:06:16;;;;;;;0.10;0.10;;;14.60;99.90;;;;;;5011552;28;20162;-65
2023/05/20 07:08:42;;;;;;;0.00;0.00;;;14.70;99.90;;;;;;5008177;28;20080;-64
2023/05/20 07:11:07;;;;;;;0.05;0.05;;;14.80;99.90;;;;;;5008108;28;20046;-65
2023/05/20 07:13:33;;;;;;;2.92;1.45;;;14.80;99.90;;;;;;5016348;28;20049;-64
2023/05/20 07:15:58;;;;;;;0.00;0.00;;;14.80;99.90;;;;;;5037027;28;20508;-65
2023/05/20 07:18:24;;;;;;;0.00;0.00;;;14.90;99.90;;;;;;5014359;28;20050;-64
2023/05/20 07:20:49;;;;;;;0.00;0.00;;;14.90;99.90;;;;;;5009454;28;20185;-64
2023/05/20 07:23:15;;;;;;;0.10;0.10;;;15.00;99.90;;;;;;4999288;28;20153;-64
2023/05/20 07:25:41;;;;;;;0.00;0.00;;;15.00;99.90;;;;;;5005412;28;20041;-64
2023/05/20 07:28:06;;;;;;;0.00;0.00;;;15.20;99.90;;;;;;5006965;28;20084;-65
2023/05/20 07:30:32;;;;;;;0.00;0.00;;;15.20;99.90;;;;;;5005999;28;20045;-65
2023/05/20 07:32:57;;;;;;;2.13;1.17;;;15.20;99.90;;;;;;5004575;28;20491;-65
2023/05/20 07:35:23;;;;;;;0.00;0.00;;;15.30;99.90;;;;;;5006810;28;20038;-65
2023/05/20 07:37:49;;;;;;;0.10;0.10;;;15.40;99.90;;;;;;5009680;28;20049;-65
2023/05/20 07:40:14;;;;;;;0.10;0.10;;;15.50;99.90;;;;;;5014212;28;20038;-65
2023/05/20 07:42:40;;;;;;;0.03;0.03;;;15.50;99.90;;;;;;5011469;28;20046;-65
2023/05/20 07:45:06;;;;;;;0.10;0.10;;;15.50;99.90;;;;;;5014160;28;20050;-65
2023/05/20 07:47:32;;;;;;;0.10;0.10;;;15.70;99.90;;;;;;5005411;28;20784;-65
2023/05/20 07:49:58;;;;;;;0.20;0.20;;;15.70;99.90;;;;;;5020236;28;20112;-65
2023/05/20 07:52:23;;;;;;;0.00;0.00;;;15.70;99.90;;;;;;5007130;28;20046;-65
2023/05/20 07:54:49;;;;;;;1.65;0.73;;;15.80;99.90;;;;;;5008445;28;20037;-65
2023/05/20 07:57:15;;;;;;;0.22;0.22;;;15.80;99.90;;;;;;5015996;28;20042;-65
2023/05/20 07:59:40;;;;;;;0.00;0.00;;;15.80;99.90;;;;;;5014208;28;20042;-65
2023/05/20 08:02:07;;;;;;;0.00;0.00;;;15.90;99.90;;;;;;5004964;28;20120;-65
2023/05/20 08:04:33;;;;;;;0.00;0.00;;;15.90;99.90;;;;;;5009220;28;20080;-66
2023/05/20 08:06:59;;;;;;;0.00;0.00;;;16.00;99.90;;;;;;5006502;28;20045;-66
2023/05/20 08:09:25;;;;;;;0.10;0.10;;;16.00;99.90;;;;;;5015022;28;20060;-65
2023/05/20 08:11:50;;;;;;;14.82;0.85;;;16.10;99.90;;;;;;5012457;28;20038;-65
2023/05/20 08:14:16;;;;;;;0.00;0.00;;;16.20;99.90;;;;;;5002626;28;20042;-66
2023/05/20 08:16:42;;;;;;;0.00;0.00;;;16.20;99.90;;;;;;5009118;28;20496;-66
2023/05/20 08:19:07;;;;;;;0.00;0.00;;;16.20;99.90;;;;;;5011179;28;20050;-66
2023/05/20 08:21:34;;;;;;;0.00;0.00;;;16.20;99.90;;;;;;5009065;28;20034;-65
2023/05/20 08:24:00;;;;;;;0.10;0.10;;;16.30;99.90;;;;;;4998999;28;20053;-66
2023/05/20 08:26:25;;;;;;;0.55;0.30;;;16.40;99.90;;;;;;5008583;28;20413;-66
2023/05/20 08:28:51;;;;;;;0.05;0.05;;;16.50;99.90;;;;;;5001647;28;20058;-66
2023/05/20 08:31:17;;;;;;;0.65;0.65;;;16.60;99.90;;;;;;5003905;28;20061;-66
2023/05/20 08:33:43;;;;;;;0.10;0.10;;;16.60;99.90;;;;;;5014015;28;20050;-66
2023/05/20 08:36:08;;;;;;;14.60;0.88;;;16.50;99.90;;;;;;5007929;28;20524;-66
2023/05/20 08:38:35;;;;;;;0.00;0.00;;;16.50;99.90;;;;;;5005324;28;20050;-66
2023/05/20 08:41:00;;;;;;;0.20;0.20;;;16.60;99.90;;;;;;5000736;28;20898;-66
2023/05/20 08:43:26;;;;;;;0.10;0.10;;;16.60;99.90;;;;;;5003099;28;20061;-66
2023/05/20 08:45:52;;;;;;;0.57;0.57;;;16.60;99.90;;;;;;5007435;28;20060;-65
2023/05/20 08:48:18;;;;;;;0.90;0.90;;;16.60;99.90;;;;;;5004564;28;20154;-65
2023/05/20 08:50:50;;;;;;;0.68;0.68;;;16.70;99.90;;;;;;5016529;28;20052;-66
2023/05/20 08:53:17;;;;;;;0.10;0.10;;;16.80;99.90;;;;;;5003313;28;20046;-66
2023/05/20 08:55:47;;;;;;;2.25;0.45;;;16.80;99.90;;;;;;5032584;28;20489;-66
2023/05/20 08:58:14;;;;;;;0.00;0.00;;;16.90;99.90;;;;;;5007005;28;20034;-66
2023/05/20 09:00:40;;;;;;;0.00;0.00;;;16.90;99.90;;;;;;4999308;28;20074;-66
2023/05/20 09:03:06;;;;;;;0.80;0.73;;;16.90;99.90;;;;;;5007099;28;20125;-66
2023/05/20 09:05:33;;;;;;;0.20;0.20;;;16.90;99.90;;;;;;5011279;28;20129;-66
2023/05/20 09:08:10;;;;;;;0.00;0.00;;;17.00;99.90;;;;;;5002972;28;20062;-66
2023/05/20 09:10:37;;;;;;;0.00;0.00;;;17.10;99.90;;;;;;5002103;28;20127;-66
2023/05/20 09:13:04;;;;;;;0.20;0.20;;;17.20;99.90;;;;;;5005085;28;20103;-66
2023/05/20 09:15:31;;;;;;;0.20;0.20;;;17.20;99.90;;;;;;4999567;28;20517;-66
2023/05/20 09:18:00;;;;;;;8.48;2.03;;;17.30;99.90;;;;;;5001029;28;20038;-66
2023/05/20 09:20:26;;;;;;;0.00;0.00;;;17.40;99.90;;;;;;5002198;28;20045;-66
2023/05/20 09:22:52;;;;;;;0.00;0.00;;;17.50;99.90;;;;;;5007231;28;20030;-66
2023/05/20 09:25:21;;;;;;;0.00;0.00;;;17.50;99.90;;;;;;4996773;28;20041;-66
2023/05/20 09:27:48;;;;;;;0.00;0.00;;;17.60;99.90;;;;;;5003939;28;20052;-65
2023/05/20 09:30:17;;;;;;;0.00;0.00;;;17.70;99.90;;;;;;5003092;28;20041;-66
2023/05/20 09:32:43;;;;;;;0.10;0.10;;;17.80;99.90;;;;;;5005463;28;20096;-66
2023/05/20 09:35:12;;;;;;;0.00;0.00;;;17.90;99.90;;;;;;5007427;28;20425;-66
2023/05/20 09:37:41;;;;;;;0.80;0.40;;;18.20;99.90;;;;;;5015500;28;20531;-66
2023/05/20 09:40:11;;;;;;;0.00;0.00;;;18.60;99.90;;;;;;5004542;28;20060;-66
2023/05/20 09:43:02;;;;;;;6.93;1.35;;;19.10;99.90;;;;;;4998235;28;20050;-66
2023/05/20 09:45:28;;;;;;;0.10;0.10;;;19.40;99.90;;;;;;5000196;28;20123;-66
2023/05/20 09:47:55;;;;;;;0.00;0.00;;;19.80;99.90;;;;;;5014152;28;20034;-65
2023/05/20 09:50:23;;;;;;;0.00;0.00;;;19.90;99.90;;;;;;5006332;28;20056;-66
2023/05/20 09:52:50;;;;;;;0.00;0.00;;;20.20;99.90;;;;;;5008022;28;20030;-66
2023/05/20 09:55:18;;;;;;;0.32;0.32;;;20.30;99.90;;;;;;4996201;28;20081;-66
2023/05/20 09:57:44;;;;;;;0.00;0.00;;;20.50;99.90;;;;;;5001742;28;20042;-65
2023/05/20 10:00:16;;;;;;;0.10;0.10;;;20.60;99.90;;;;;;5000968;28;20049;-66
2023/05/20 10:02:46;;;;;;;0.00;0.00;;;20.90;99.90;;;;;;5004592;28;20770;-66
2023/05/20 10:05:24;;;;;;;0.00;0.00;;;20.80;99.90;;;;;;5003296;28;20030;-66
2023/05/20 10:08:02;;;;;;;0.00;0.00;;;20.60;99.90;;;;;;4999643;28;20064;-66
2023/05/20 10:10:53;;;;;;;0.00;0.00;;;20.80;99.90;;;;;;4993562;28;20043;-66
2023/05/20 10:13:52;;;;;;;0.00;0.00;;;20.80;99.90;;;;;;5004326;28;20053;-66
2023/05/20 10:16:40;;;;;;;0.00;0.00;;;20.90;99.90;;;;;;5002173;28;20034;-66
2023/05/20 10:19:29;;;;;;;0.00;0.00;;;21.10;99.90;;;;;;5002264;28;20132;-66
2023/05/20 10:22:03;;;;;;;0.00;0.00;;;21.00;99.90;;;;;;5005430;28;20092;-66
2023/05/20 10:24:31;;;;;;;0.40;0.40;;;21.00;99.90;;;;;;5000169;28;20041;-66
2023/05/20 10:26:59;;;;;;;0.88;0.63;;;21.10;99.90;;;;;;4999201;28;20516;-66
2023/05/20 10:29:25;;;;;;;0.00;0.00;;;21.20;99.90;;;;;;4998088;28;20052;-66
2023/05/20 10:31:51;;;;;;;0.03;0.03;;;21.10;99.90;;;;;;5004378;28;20108;-66
2023/05/20 10:34:19;;;;;;;0.43;0.43;;;21.10;99.90;;;;;;5000102;28;20375;-66
2023/05/20 10:36:53;;;;;;;0.00;0.00;;;21.20;99.90;;;;;;4994758;28;20409;-66
2023/05/20 10:39:26;;;;;;;0.38;0.15;;;21.20;99.90;;;;;;5004022;28;20050;-66
2023/05/20 10:41:52;;;;;;;0.00;0.00;;;21.10;99.90;;;;;;4999666;28;20815;-65
2023/05/20 10:44:17;;;;;;;0.80;0.65;;;21.20;99.90;;;;;;5000735;28;20035;-65
2023/05/20 10:46:43;;;;;;;0.00;0.00;;;21.10;99.90;;;;;;4999795;28;21481;-65
2023/05/20 10:49:19;;;;;;;1.55;0.47;;;21.00;99.90;;;;;;4998502;28;20065;-65
2023/05/20 10:51:46;;;;;;;0.00;0.00;;;21.20;99.90;;;;;;5001566;28;20153;-66
2023/05/20 10:54:13;;;;;;;0.00;0.00;;;21.30;99.90;;;;;;5002284;28;20042;-66
2023/05/20 10:56:49;;;;;;;0.75;0.75;;;21.30;99.90;;;;;;5000753;28;20050;-66
2023/05/20 10:59:15;;;;;;;0.00;0.00;;;21.50;99.90;;;;;;5005633;28;20133;-66
2023/05/20 11:01:42;;;;;;;0.45;0.45;;;21.50;99.90;;;;;;5005865;28;20129;-66
2023/05/20 11:04:08;;;;;;;0.00;0.00;;;21.50;99.90;;;;;;5002619;28;20042;-67
2023/05/20 11:06:33;;;;;;;0.32;0.32;;;21.60;99.90;;;;;;5005582;28;20045;-66
2023/05/20 11:09:06;;;;;;;0.47;0.47;;;21.40;99.90;;;;;;5032528;28;20132;-66
2023/05/20 11:11:31;;;;;;;0.05;0.05;;;21.50;99.90;;;;;;5004797;28;20142;-67
2023/05/20 11:13:57;;;;;;;0.10;0.10;;;21.60;99.90;;;;;;5010256;28;20112;-67
2023/05/20 11:16:23;;;;;;;0.03;0.03;;;21.50;99.90;;;;;;5008607;28;20370;-67
2023/05/20 11:18:49;;;;;;;0.00;0.00;;;21.50;99.90;;;;;;5007235;28;20070;-67
2023/05/20 11:21:15;;;;;;;0.40;0.40;;;21.60;99.90;;;;;;5008121;28;20060;-67
2023/05/20 11:23:41;;;;;;;0.10;0.10;;;21.60;99.90;;;;;;5004575;28;20058;-67
2023/05/20 11:26:07;;;;;;;0.47;0.47;;;21.80;99.90;;;;;;5004287;28;20125;-66
2023/05/20 11:28:34;;;;;;;0.00;0.00;;;21.80;99.90;;;;;;5003586;28;20062;-67
2023/05/20 11:31:00;;;;;;;0.00;0.00;;;21.70;99.90;;;;;;5008918;28;20112;-66
2023/05/20 11:33:26;;;;;;;0.00;0.00;;;22.10;99.90;;;;;;5008117;28;20964;-66
2023/05/20 11:35:52;;;;;;;0.22;0.22;;;21.80;99.90;;;;;;5008181;28;20812;-66
2023/05/20 11:38:19;;;;;;;0.00;0.00;;;22.10;99.90;;;;;;5002960;28;20046;-67
2023/05/20 11:40:46;;;;;;;0.00;0.00;;;22.20;99.90;;;;;;5026463;28;20038;-66
2023/05/20 11:43:13;;;;;;;0.00;0.00;;;22.30;99.90;;;;;;5007835;28;20131;-67
2023/05/20 11:45:43;;;;;;;0.05;0.03;;;22.40;99.90;;;;;;5004063;28;20109;-67
2023/05/20 11:48:11;;;;;;;0.00;0.00;;;22.20;99.90;;;;;;5003147;28;20124;-66
2023/05/20 11:50:39;;;;;;;0.45;0.45;;;22.40;99.90;;;;;;5004458;28;20050;-66
2023/05/20 11:53:10;;;;;;;0.00;0.00;;;22.50;99.90;;;;;;5005001;28;20046;-66
2023/05/20 11:55:57;;;;;;;0.68;0.50;;;22.60;99.90;;;;;;5000884;28;20045;-66
2023/05/20 11:58:30;;;;;;;0.17;0.17;;;22.80;99.90;;;;;;5004275;28;20085;-67
2023/05/20 12:00:56;;;;;;;0.52;0.52;;;23.00;99.90;;;;;;4998786;28;20084;-67
2023/05/20 12:03:22;;;;;;;0.00;0.00;;;22.80;99.90;;;;;;5003332;28;20443;-67
2023/05/20 12:05:49;;;;;;;0.10;0.10;;;23.10;99.90;;;;;;5006591;28;20038;-67
2023/05/20 12:08:15;;;;;;;0.00;0.00;;;23.10;99.90;;;;;;5006773;28;20049;-67
2023/05/20 12:10:41;;;;;;;1.55;0.73;;;23.10;99.90;;;;;;5003783;28;20042;-67
2023/05/20 12:13:10;;;;;;;0.05;0.05;;;23.00;99.90;;;;;;5005686;28;20057;-67
2023/05/20 12:15:36;;;;;;;0.00;0.00;;;23.00;99.90;;;;;;4998083;28;20441;-67
2023/05/20 12:18:01;;;;;;;0.38;0.38;;;23.40;99.90;;;;;;5001793;28;20054;-67
2023/05/20 12:20:27;;;;;;;1.67;1.55;;;23.20;99.90;;;;;;5006772;28;20030;-67
2023/05/20 12:22:53;;;;;;;12.45;0.40;;;23.30;99.90;;;;;;5000861;28;20073;-67
2023/05/20 12:25:20;;;;;;;0.00;0.00;;;23.30;99.90;;;;;;5002091;28;20503;-67
2023/05/20 12:27:47;;;;;;;0.00;0.00;;;23.40;99.90;;;;;;5035674;28;20062;-66
2023/05/20 12:30:18;;;;;;;0.00;0.00;;;23.60;99.90;;;;;;5040063;28;20058;-67
2023/05/20 12:32:45;;;;;;;0.00;0.00;;;23.70;99.90;;;;;;5016505;28;20481;-66
2023/05/20 12:35:11;;;;;;;0.10;0.10;;;23.60;99.90;;;;;;4999214;28;20045;-66
2023/05/20 12:37:38;;;;;;;0.28;0.28;;;24.00;99.90;;;;;;5002176;28;20513;-67
2023/05/20 12:40:07;;;;;;;0.00;0.00;;;23.70;99.90;;;;;;4995419;28;20088;-67
2023/05/20 12:42:40;;;;;;;0.00;0.00;;;23.70;99.90;;;;;;4997428;28;20125;-67
2023/05/20 12:45:06;;;;;;;0.00;0.00;;;23.60;99.90;;;;;;5017357;28;20057;-66